createdAt,value
2022-10-11T00:00:44.168Z,102484.00
2022-10-11T00:03:10.985Z,102514.66
2022-10-11T00:05:37.568Z,102501.69
2022-10-11T00:08:05.883Z,102493.72
2022-10-11T00:10:33.940Z,102500.19
2022-10-11T00:13:00.730Z,102497.44
2022-10-11T00:15:27.442Z,102496.97
2022-10-11T00:17:53.911Z,102498.50
2022-10-11T00:20:20.448Z,102501.78
2022-10-11T00:22:47.097Z,102512.06
2022-10-11T00:25:13.656Z,102515.22
2022-10-11T00:27:40.124Z,102517.81
2022-10-11T00:30:07.081Z,102511.59
2022-10-11T00:32:34.891Z,102505.50
2022-10-11T00:35:06.205Z,102500.84
2022-10-11T00:37:34.667Z,102523.50
2022-10-11T00:40:02.187Z,102527.91
2022-10-11T00:42:29.073Z,102526.94
2022-10-11T00:45:27.631Z,102531.69
2022-10-11T00:47:56.424Z,102535.34
2022-10-11T00:50:25.077Z,102534.00
2022-10-11T00:52:59.517Z,102525.59
2022-10-11T00:55:29.473Z,102519.78
2022-10-11T00:57:57.890Z,102511.28
2022-10-11T01:00:24.754Z,102528.69
2022-10-11T01:02:51.353Z,102531.94
2022-10-11T01:05:29.150Z,102535.44
2022-10-11T01:07:56.002Z,102533.56
2022-10-11T01:10:22.636Z,102541.25
2022-10-11T01:13:20.730Z,102535.16
2022-10-11T01:15:57.024Z,102524.25
2022-10-11T01:18:41.205Z,102504.59
2022-10-11T01:21:26.036Z,102531.06
2022-10-11T01:24:18.661Z,102535.22
2022-10-11T01:27:20.713Z,102533.84
2022-10-11T01:30:00.141Z,102531.94
2022-10-11T01:32:32.605Z,102535.44
2022-10-11T01:35:21.222Z,102544.81
2022-10-11T01:37:55.605Z,102545.44
2022-10-11T01:40:26.904Z,102547.47
2022-10-11T01:42:55.262Z,102539.59
2022-10-11T01:45:22.044Z,102554.66
2022-10-11T01:48:01.185Z,102550.50
2022-10-11T01:50:52.311Z,102552.75
2022-10-11T01:53:37.363Z,102562.75
2022-10-11T01:56:15.946Z,102553.31
2022-10-11T01:59:13.306Z,102569.25
2022-10-11T02:02:22.479Z,102563.31
2022-10-11T02:04:56.464Z,102565.88
2022-10-11T02:07:35.763Z,102559.78
2022-10-11T02:10:18.062Z,102564.75
2022-10-11T02:12:59.744Z,102557.38
2022-10-11T02:15:29.988Z,102556.38
2022-10-11T02:17:59.659Z,102552.75
2022-10-11T02:20:30.210Z,102550.81
2022-10-11T02:23:26.747Z,102545.47
2022-10-11T02:25:55.079Z,102561.88
2022-10-11T02:28:26.561Z,102555.69
2022-10-11T02:30:54.142Z,102543.28
2022-10-11T02:33:26.559Z,102556.31
2022-10-11T02:36:00.004Z,102536.81
2022-10-11T02:38:32.238Z,102560.41
2022-10-11T02:41:11.614Z,102555.06
2022-10-11T02:43:46.028Z,102557.03
2022-10-11T02:46:13.924Z,102562.34
2022-10-11T02:48:41.743Z,102548.66
2022-10-11T02:51:13.179Z,102559.56
2022-10-11T02:53:41.343Z,102559.78
2022-10-11T02:56:08.464Z,102559.94
2022-10-11T02:58:35.331Z,102566.13
2022-10-11T03:01:01.859Z,102557.09
2022-10-11T03:03:28.847Z,102571.97
2022-10-11T03:06:02.975Z,102577.00
2022-10-11T03:08:29.978Z,102564.78
2022-10-11T03:10:56.794Z,102557.81
2022-10-11T03:13:23.254Z,102567.47
2022-10-11T03:16:02.894Z,102565.41
2022-10-11T03:18:30.722Z,102574.09
2022-10-11T03:20:57.254Z,102569.66
2022-10-11T03:23:23.740Z,102570.34
2022-10-11T03:25:52.007Z,102566.66
2022-10-11T03:28:18.970Z,102562.16
2022-10-11T03:30:50.276Z,102569.84
2022-10-11T03:33:17.834Z,102572.34
2022-10-11T03:35:49.104Z,102568.56
2022-10-11T03:38:22.445Z,102570.88
2022-10-11T03:40:49.367Z,102573.25
2022-10-11T03:43:16.178Z,102577.75
2022-10-11T03:45:42.744Z,102562.78
2022-10-11T03:48:10.284Z,102561.91
2022-10-11T03:50:37.597Z,102576.63
2022-10-11T03:53:05.171Z,102581.66
2022-10-11T03:55:32.196Z,102578.03
2022-10-11T03:57:58.691Z,102579.66
2022-10-11T04:00:25.286Z,102583.09
2022-10-11T04:02:51.745Z,102570.66
2022-10-11T04:05:18.522Z,102591.75
2022-10-11T04:07:44.988Z,102587.97
2022-10-11T04:10:11.529Z,102592.47
2022-10-11T04:12:39.182Z,102589.91
2022-10-11T04:15:07.175Z,102598.69
2022-10-11T04:17:33.828Z,102603.97
2022-10-11T04:20:00.402Z,102602.28
2022-10-11T04:22:26.960Z,102606.63
2022-10-11T04:24:53.454Z,102612.81
2022-10-11T04:27:20.185Z,102618.34
2022-10-11T04:29:46.715Z,102613.56
2022-10-11T04:32:13.169Z,102618.13
2022-10-11T04:34:39.661Z,102607.00
2022-10-11T04:37:06.423Z,102609.09
2022-10-11T04:39:33.526Z,102612.84
2022-10-11T04:42:00.017Z,102610.28
2022-10-11T04:44:26.583Z,102617.50
2022-10-11T04:46:53.078Z,102617.50
2022-10-11T04:49:19.537Z,102622.09
2022-10-11T04:51:46.002Z,102620.50
2022-10-11T04:54:14.896Z,102620.00
2022-10-11T04:56:41.421Z,102632.44
2022-10-11T04:59:07.900Z,102608.41
2022-10-11T05:01:34.722Z,102627.94
2022-10-11T05:04:01.252Z,102626.31
2022-10-11T05:06:27.835Z,102632.44
2022-10-11T05:08:54.444Z,102638.47
2022-10-11T05:11:20.916Z,102634.38
2022-10-11T05:13:47.806Z,102632.53
2022-10-11T05:16:15.200Z,102623.75
2022-10-11T05:18:42.101Z,102600.56
2022-10-11T05:21:29.634Z,102633.88
2022-10-11T05:23:57.088Z,102634.34
2022-10-11T05:26:25.833Z,102637.69
2022-10-11T05:28:52.874Z,102651.25
2022-10-11T05:31:20.164Z,102644.19
2022-10-11T05:33:46.992Z,102639.53
2022-10-11T05:36:13.545Z,102640.59
2022-10-11T05:38:40.359Z,102637.16
2022-10-11T05:41:11.592Z,102644.38
2022-10-11T05:43:38.125Z,102650.50
2022-10-11T05:46:08.277Z,102643.97
2022-10-11T05:48:35.095Z,102646.59
2022-10-11T05:51:05.156Z,102657.34
2022-10-11T05:53:32.922Z,102666.00
2022-10-11T05:55:59.943Z,102653.13
2022-10-11T05:58:26.845Z,102666.34
2022-10-11T06:00:53.469Z,102661.22
2022-10-11T06:03:21.242Z,102663.94
2022-10-11T06:05:48.047Z,102663.78
2022-10-11T06:08:15.791Z,102667.94
2022-10-11T06:10:42.324Z,102664.34
2022-10-11T06:13:11.073Z,102670.44
2022-10-11T06:15:40.171Z,102662.47
2022-10-11T06:18:06.698Z,102666.09
2022-10-11T06:20:33.360Z,102670.16
2022-10-11T06:22:59.840Z,102670.34
2022-10-11T06:25:26.390Z,102674.91
2022-10-11T06:27:52.870Z,102676.44
2022-10-11T06:30:19.374Z,102682.59
2022-10-11T06:32:45.925Z,102686.13
2022-10-11T06:35:15.873Z,102683.50
2022-10-11T06:37:47.819Z,102692.31
2022-10-11T06:44:20.371Z,102658.03
2022-10-11T06:51:00.342Z,102705.50
2022-10-11T06:53:56.915Z,102662.47
2022-10-11T06:57:03.603Z,102664.34
2022-10-11T07:03:32.766Z,102693.41
2022-10-11T07:10:46.969Z,102726.84
2022-10-11T07:34:38.856Z,102699.34
2022-10-11T07:37:09.941Z,102701.63
2022-10-11T07:40:21.824Z,102704.63
2022-10-11T07:42:55.998Z,102727.31
2022-10-11T07:50:07.790Z,102724.81
2022-10-11T07:56:23.861Z,102728.84
2022-10-11T07:59:10.511Z,102720.00
2022-10-11T08:01:50.323Z,102719.53
2022-10-11T08:04:39.598Z,102737.50
2022-10-11T08:07:15.979Z,102706.09
2022-10-11T08:12:39.865Z,102731.25
2022-10-11T08:15:06.921Z,102725.19
2022-10-11T08:17:33.491Z,102762.19
2022-10-11T08:20:03.316Z,102765.06
2022-10-11T08:22:30.571Z,102737.50
2022-10-11T08:24:57.318Z,102727.34
2022-10-11T08:27:26.653Z,102760.41
2022-10-11T08:29:58.430Z,102744.00
2022-10-11T08:32:27.089Z,102754.09
2022-10-11T08:34:53.656Z,102740.94
2022-10-11T08:37:20.195Z,102756.53
2022-10-11T08:39:46.922Z,102778.91
2022-10-11T08:42:36.557Z,102780.94
2022-10-11T08:45:16.927Z,102772.34
2022-10-11T08:47:45.094Z,102780.19
2022-10-11T08:50:23.861Z,102783.59
2022-10-11T08:52:58.868Z,102787.38
2022-10-11T08:55:39.745Z,102788.59
2022-10-11T08:58:06.414Z,102787.41
2022-10-11T09:00:36.177Z,102774.88
2022-10-11T09:03:21.212Z,102796.63
2022-10-11T09:05:57.505Z,102797.03
2022-10-11T09:08:50.387Z,102790.84
2022-10-11T09:11:35.041Z,102793.19
2022-10-11T09:14:53.139Z,102794.41
2022-10-11T09:17:35.274Z,102799.88
2022-10-11T09:20:47.136Z,102804.63
2022-10-11T09:23:44.270Z,102800.53
2022-10-11T09:26:34.713Z,102797.06
2022-10-11T09:29:12.805Z,102806.94
2022-10-11T09:31:39.352Z,102803.78
2022-10-11T09:34:12.101Z,102799.97
2022-10-11T09:36:51.255Z,102804.28
2022-10-11T09:39:29.906Z,102806.63
2022-10-11T09:42:01.424Z,102806.13
2022-10-11T09:44:33.520Z,102802.72
2022-10-11T09:47:00.113Z,102791.88
2022-10-11T09:49:40.299Z,102802.50
2022-10-11T09:52:15.299Z,102806.41
2022-10-11T09:54:42.984Z,102803.69
2022-10-11T09:57:18.629Z,102804.75
2022-10-11T10:00:07.368Z,102799.91
2022-10-11T10:02:51.545Z,102800.53
2022-10-11T10:05:24.250Z,102799.09
2022-10-11T10:08:10.549Z,102792.81
2022-10-11T10:10:54.685Z,102797.94
2022-10-11T10:13:49.759Z,102801.44
2022-10-11T10:16:29.510Z,102805.56
2022-10-11T10:18:57.986Z,102802.06
2022-10-11T10:21:27.228Z,102797.13
2022-10-11T10:23:55.590Z,102797.31
2022-10-11T10:26:26.417Z,102794.84
2022-10-11T10:29:10.171Z,102794.91
2022-10-11T10:34:54.968Z,102804.84
2022-10-11T10:37:35.417Z,102797.28
2022-10-11T10:41:00.786Z,102798.88
2022-10-11T10:43:33.120Z,102777.13
2022-10-11T10:46:14.733Z,102803.22
2022-10-11T10:51:57.794Z,102804.25
2022-10-11T10:54:39.091Z,102792.09
2022-10-11T10:57:20.099Z,102791.44
2022-10-11T10:59:49.356Z,102797.63
2022-10-11T11:02:40.084Z,102782.22
2022-10-11T11:05:21.366Z,102787.63
2022-10-11T11:08:06.238Z,102788.47
2022-10-11T11:10:59.081Z,102785.84
2022-10-11T11:13:52.570Z,102776.59
2022-10-11T11:16:25.550Z,102770.84
2022-10-11T11:19:40.210Z,102761.28
2022-10-11T11:22:13.839Z,102761.91
2022-10-11T11:24:52.632Z,102769.31
2022-10-11T11:27:52.587Z,102770.41
2022-10-11T11:30:23.617Z,102765.50
2022-10-11T11:32:59.762Z,102757.75
2022-10-11T11:35:39.164Z,102762.25
2022-10-11T11:38:18.902Z,102763.03
2022-10-11T11:41:02.264Z,102762.38
2022-10-11T11:43:38.244Z,102763.84
2022-10-11T11:46:10.643Z,102761.56
2022-10-11T11:48:38.644Z,102745.06
2022-10-11T11:51:19.584Z,102762.38
2022-10-11T11:54:08.311Z,102757.28
2022-10-11T11:57:02.489Z,102756.78
2022-10-11T11:59:52.257Z,102760.31
2022-10-11T12:02:38.940Z,102753.28
2022-10-11T12:05:08.350Z,102752.44
2022-10-11T12:07:53.065Z,102745.97
2022-10-11T12:10:38.704Z,102746.84
2022-10-11T12:13:29.725Z,102748.13
2022-10-11T12:16:15.182Z,102740.81
2022-10-11T12:18:56.726Z,102741.56
2022-10-11T12:21:36.897Z,102742.25
2022-10-11T12:24:15.608Z,102736.38
2022-10-11T12:26:44.998Z,102727.50
2022-10-11T12:29:18.316Z,102726.38
2022-10-11T12:32:00.863Z,102729.50
2022-10-11T12:34:42.232Z,102727.63
2022-10-11T12:37:18.133Z,102723.44
2022-10-11T12:39:50.864Z,102721.81
2022-10-11T12:42:26.949Z,102683.28
2022-10-11T12:45:19.937Z,102716.88
2022-10-11T12:47:55.450Z,102726.53
2022-10-11T12:50:32.371Z,102700.25
2022-10-11T12:53:21.544Z,102705.66
2022-10-11T12:56:01.163Z,102726.63
2022-10-11T12:58:38.823Z,102687.84
2022-10-11T13:01:10.427Z,102722.75
2022-10-11T13:03:42.331Z,102707.78
2022-10-11T13:06:17.675Z,102690.97
2022-10-11T13:08:52.533Z,102725.13
2022-10-11T13:11:23.550Z,102700.81
2022-10-11T13:13:54.310Z,102700.63
2022-10-11T13:16:27.590Z,102721.66
2022-10-11T13:18:57.888Z,102713.97
2022-10-11T13:21:36.207Z,102674.41
2022-10-11T13:24:14.482Z,102702.31
2022-10-11T13:26:43.007Z,102703.03
2022-10-11T13:29:29.882Z,102693.13
2022-10-11T13:31:56.464Z,102669.34
2022-10-11T13:34:23.887Z,102686.88
2022-10-11T13:36:56.435Z,102704.88
2022-10-11T13:39:31.183Z,102705.47
2022-10-11T13:42:01.932Z,102711.47
2022-10-11T13:44:31.994Z,102705.13
2022-10-11T13:46:59.361Z,102684.16
2022-10-11T13:49:30.805Z,102690.34
2022-10-11T13:51:59.998Z,102697.47
2022-10-11T13:54:55.333Z,102703.47
2022-10-11T13:57:36.431Z,102673.78
2022-10-11T14:00:21.975Z,102661.81
2022-10-11T14:02:56.286Z,102694.50
2022-10-11T14:05:44.559Z,102671.75
2022-10-11T14:08:50.178Z,102671.22
2022-10-11T14:11:33.388Z,102676.66
2022-10-11T14:14:18.931Z,102690.84
2022-10-11T14:16:56.289Z,102693.59
2022-10-11T14:19:23.060Z,102659.44
2022-10-11T14:21:51.814Z,102701.53
2022-10-11T14:24:19.233Z,102679.69
2022-10-11T14:26:49.620Z,102684.03
2022-10-11T14:29:31.053Z,102668.19
2022-10-11T14:32:19.349Z,102701.41
2022-10-11T14:34:47.657Z,102691.72
2022-10-11T14:37:18.983Z,102650.38
2022-10-11T14:39:47.904Z,102675.50
2022-10-11T14:42:15.515Z,102655.47
2022-10-11T14:44:42.087Z,102663.53
2022-10-11T14:47:09.830Z,102690.53
2022-10-11T14:49:37.637Z,102683.56
2022-10-11T14:52:07.069Z,102673.13
2022-10-11T14:54:34.099Z,102684.44
2022-10-11T14:57:04.046Z,102690.28
2022-10-11T14:59:37.091Z,102674.47
2022-10-11T15:02:06.740Z,102672.50
2022-10-11T15:04:33.386Z,102663.06
2022-10-11T15:07:00.511Z,102653.28
2022-10-11T15:09:29.175Z,102673.31
2022-10-11T15:11:56.531Z,102636.66
2022-10-11T15:14:24.702Z,102656.91
2022-10-11T15:16:51.429Z,102667.38
2022-10-11T15:19:22.305Z,102661.94
2022-10-11T15:21:49.304Z,102631.88
2022-10-11T15:24:22.467Z,102671.78
2022-10-11T15:26:49.291Z,102674.19
2022-10-11T15:29:21.825Z,102660.63
2022-10-11T15:31:49.531Z,102646.53
2022-10-11T15:34:16.734Z,102634.75
2022-10-11T15:36:43.413Z,102639.69
2022-10-11T15:39:31.881Z,102672.72
2022-10-11T15:41:58.814Z,102625.16
2022-10-11T15:44:25.459Z,102629.25
2022-10-11T15:46:52.183Z,102656.19
2022-10-11T15:49:18.924Z,102659.66
2022-10-11T15:51:46.263Z,102632.06
2022-10-11T15:54:12.986Z,102668.78
2022-10-11T15:56:40.091Z,102638.78
2022-10-11T15:59:06.832Z,102652.75
2022-10-11T16:01:33.438Z,102667.34
2022-10-11T16:04:00.117Z,102655.69
2022-10-11T16:06:29.695Z,102662.50
2022-10-11T16:08:56.245Z,102637.81
2022-10-11T16:11:22.765Z,102643.66
2022-10-11T16:13:49.536Z,102623.22
2022-10-11T16:16:16.198Z,102663.19
2022-10-11T16:18:42.817Z,102642.09
2022-10-11T16:21:15.448Z,102666.28
2022-10-11T16:23:42.148Z,102658.97
2022-10-11T16:26:13.429Z,102637.66
2022-10-11T16:28:40.093Z,102615.63
2022-10-11T16:31:09.093Z,102643.44
2022-10-11T16:33:45.222Z,102633.50
2022-10-11T16:36:32.609Z,102656.63
2022-10-11T16:39:03.512Z,102681.94
2022-10-11T16:41:30.080Z,102676.50
2022-10-11T16:43:56.630Z,102679.97
2022-10-11T16:46:23.837Z,102640.09
2022-10-11T16:48:50.597Z,102662.81
2022-10-11T16:51:17.254Z,102648.50
2022-10-11T16:53:43.813Z,102644.09
2022-10-11T16:56:12.163Z,102681.59
2022-10-11T16:58:41.355Z,102638.28
2022-10-11T17:01:10.455Z,102667.13
2022-10-11T17:03:37.321Z,102638.72
2022-10-11T17:06:05.856Z,102687.69
2022-10-11T17:08:33.078Z,102665.69
2022-10-11T17:10:59.839Z,102645.16
2022-10-11T17:13:26.531Z,102667.66
2022-10-11T17:15:53.253Z,102655.91
2022-10-11T17:18:19.931Z,102664.69
2022-10-11T17:20:46.502Z,102673.88
2022-10-11T17:23:13.057Z,102672.00
2022-10-11T17:25:47.224Z,102680.50
2022-10-11T17:28:13.764Z,102637.25
2022-10-11T17:30:43.162Z,102680.84
2022-10-11T17:33:09.734Z,102653.34
2022-10-11T17:35:36.236Z,102687.38
2022-10-11T17:38:06.220Z,102680.97
2022-10-11T17:40:33.120Z,102678.16
2022-10-11T17:42:59.632Z,102691.78
2022-10-11T17:45:26.207Z,102693.34
2022-10-11T17:47:52.749Z,102687.13
2022-10-11T17:50:19.343Z,102651.66
2022-10-11T17:52:45.995Z,102680.59
2022-10-11T17:55:12.799Z,102678.78
2022-10-11T17:57:39.324Z,102663.59
2022-10-11T18:00:07.454Z,102685.13
2022-10-11T18:02:33.933Z,102672.78
2022-10-11T18:05:00.466Z,102679.72
2022-10-11T18:07:27.069Z,102671.47
2022-10-11T18:09:53.567Z,102687.06
2022-10-11T18:12:20.182Z,102684.22
2022-10-11T18:14:46.804Z,102674.28
2022-10-11T18:17:13.368Z,102667.03
2022-10-11T18:19:39.815Z,102682.69
2022-10-11T18:22:07.317Z,102674.53
2022-10-11T18:24:34.295Z,102676.91
2022-10-11T18:27:00.825Z,102670.53
2022-10-11T18:29:27.377Z,102681.69
2022-10-11T18:31:53.888Z,102677.16
2022-10-11T18:34:20.425Z,102644.47
2022-10-11T18:36:47.438Z,102677.75
2022-10-11T18:39:14.866Z,102692.38
2022-10-11T18:41:44.370Z,102683.50
2022-10-11T18:44:14.136Z,102671.91
2022-10-11T18:46:40.916Z,102678.97
2022-10-11T18:49:08.640Z,102681.25
2022-10-11T18:51:38.502Z,102678.66
2022-10-11T18:54:06.096Z,102680.28
2022-10-11T18:56:34.511Z,102677.47
2022-10-11T18:59:01.468Z,102674.72
2022-10-11T19:01:39.782Z,102677.97
2022-10-11T19:04:09.098Z,102670.88
2022-10-11T19:06:42.054Z,102678.28
2022-10-11T19:09:12.231Z,102673.16
2022-10-11T19:11:39.290Z,102671.09
2022-10-11T19:14:09.320Z,102670.97
2022-10-11T19:16:38.900Z,102678.53
2022-10-11T19:19:06.605Z,102652.06
2022-10-11T19:21:33.187Z,102642.34
2022-10-11T19:23:59.699Z,102659.59
2022-10-11T19:26:29.969Z,102663.72
2022-10-11T19:29:01.950Z,102676.91
2022-10-11T19:31:29.416Z,102675.94
2022-10-11T19:33:57.722Z,102676.69
2022-10-11T19:36:24.693Z,102674.78
2022-10-11T19:38:52.119Z,102633.34
2022-10-11T19:41:19.711Z,102659.50
2022-10-11T19:43:46.711Z,102670.91
2022-10-11T19:46:20.142Z,102667.94
2022-10-11T19:48:54.398Z,102670.38
2022-10-11T19:51:23.508Z,102660.03
2022-10-11T19:53:59.414Z,102674.53
2022-10-11T19:56:28.514Z,102668.22
2022-10-11T19:58:55.887Z,102677.53
2022-10-11T20:01:25.607Z,102681.88
2022-10-11T20:03:59.300Z,102660.94
2022-10-11T20:06:28.196Z,102669.47
2022-10-11T20:09:16.738Z,102658.81
2022-10-11T20:11:42.192Z,102668.28
2022-10-11T20:14:08.864Z,102656.88
2022-10-11T20:16:35.828Z,102666.50
2022-10-11T20:19:02.671Z,102670.69
2022-10-11T20:21:30.245Z,102665.50
2022-10-11T20:23:59.642Z,102636.09
2022-10-11T20:26:29.177Z,102668.25
2022-10-11T20:28:57.135Z,102659.41
2022-10-11T20:31:33.309Z,102674.16
2022-10-11T20:34:02.383Z,102665.34
2022-10-11T20:36:30.081Z,102674.81
2022-10-11T20:38:58.538Z,102661.59
2022-10-11T20:41:33.268Z,102667.38
2022-10-11T20:44:01.753Z,102668.25
2022-10-11T20:46:31.403Z,102669.22
2022-10-11T20:49:01.849Z,102678.09
2022-10-11T20:51:31.173Z,102678.75
2022-10-11T20:53:58.850Z,102673.59
2022-10-11T20:56:25.457Z,102670.03
2022-10-11T20:58:53.931Z,102674.34
2022-10-11T21:01:29.791Z,102671.03
2022-10-11T21:04:01.264Z,102676.41
2022-10-11T21:06:29.542Z,102673.28
2022-10-11T21:08:56.509Z,102667.50
2022-10-11T21:11:32.430Z,102668.31
2022-10-11T21:14:01.635Z,102677.28
2022-10-11T21:16:29.271Z,102663.56
2022-10-11T21:18:57.506Z,102670.75
2022-10-11T21:21:24.849Z,102662.97
2022-10-11T21:23:59.162Z,102658.59
2022-10-11T21:26:27.510Z,102664.03
2022-10-11T21:28:54.348Z,102669.31
2022-10-11T21:31:22.636Z,102673.88
2022-10-11T21:33:49.545Z,102659.25
2022-10-11T21:36:22.451Z,102669.91
2022-10-11T21:38:50.681Z,102669.09
2022-10-11T21:41:19.934Z,102673.44
2022-10-11T21:43:47.325Z,102670.22
2022-10-11T21:46:22.643Z,102662.34
2022-10-11T21:48:52.688Z,102657.31
2022-10-11T21:51:25.311Z,102670.22
2022-10-11T21:53:52.065Z,102667.59
2022-10-11T21:56:18.693Z,102672.28
2022-10-11T21:58:49.828Z,102675.66
2022-10-11T22:01:17.733Z,102677.56
2022-10-11T22:03:45.151Z,102667.16
2022-10-11T22:06:12.369Z,102650.63
2022-10-11T22:08:39.420Z,102675.38
2022-10-11T22:11:06.917Z,102663.50
2022-10-11T22:13:34.272Z,102668.84
2022-10-11T22:16:09.111Z,102666.56
2022-10-11T22:18:36.165Z,102659.50
2022-10-11T22:21:13.472Z,102659.81
2022-10-11T22:23:41.694Z,102664.28
2022-10-11T22:26:19.387Z,102658.38
2022-10-11T22:28:46.846Z,102643.41
2022-10-11T22:31:15.017Z,102662.69
2022-10-11T22:33:42.157Z,102660.94
2022-10-11T22:36:11.962Z,102662.75
2022-10-11T22:38:40.934Z,102654.66
2022-10-11T22:41:07.895Z,102659.97
2022-10-11T22:43:34.832Z,102661.72
2022-10-11T22:46:01.746Z,102655.28
2022-10-11T22:48:28.263Z,102647.34
2022-10-11T22:50:54.829Z,102657.47
2022-10-11T22:53:21.577Z,102657.03
2022-10-11T22:55:48.313Z,102647.91
2022-10-11T22:58:15.016Z,102651.44
2022-10-11T23:00:41.572Z,102655.63
2022-10-11T23:03:08.211Z,102642.25
2022-10-11T23:05:35.207Z,102642.03
2022-10-11T23:08:01.788Z,102636.84
2022-10-11T23:10:28.387Z,102637.56
2022-10-11T23:12:54.930Z,102646.94
2022-10-11T23:15:21.444Z,102644.06
2022-10-11T23:17:47.973Z,102614.72
2022-10-11T23:20:14.568Z,102639.06
2022-10-11T23:22:41.038Z,102636.28
2022-10-11T23:25:08.224Z,102638.59
2022-10-11T23:27:34.893Z,102643.97
2022-10-11T23:30:01.569Z,102637.56
2022-10-11T23:32:28.143Z,102634.13
2022-10-11T23:34:54.633Z,102640.84
2022-10-11T23:37:21.133Z,102634.44
2022-10-11T23:39:47.575Z,102623.56
2022-10-11T23:42:14.076Z,102639.44
2022-10-11T23:44:40.794Z,102640.94
2022-10-11T23:47:07.444Z,102638.13
2022-10-11T23:49:34.109Z,102634.56
2022-10-11T23:52:00.596Z,102629.09
2022-10-11T23:54:27.580Z,102635.09
2022-10-11T23:56:54.094Z,102633.25
2022-10-11T23:59:20.822Z,102638.31
